createdAt,value
2017-09-18T00:01:02.724Z,95010.19
2017-09-18T00:03:33.840Z,95005.69
2017-09-18T00:06:06.297Z,95006.89
2017-09-18T00:08:38.975Z,95001.89
2017-09-18T00:11:10.903Z,95002.39
2017-09-18T00:13:41.488Z,95003.00
2017-09-18T00:16:12.034Z,95007.00
2017-09-18T00:18:42.666Z,95003.88
2017-09-18T00:21:13.390Z,94998.73
2017-09-18T00:23:44.766Z,94991.95
2017-09-18T00:26:16.339Z,94993.33
2017-09-18T00:28:46.775Z,94994.97
2017-09-18T00:31:18.101Z,94991.98
2017-09-18T00:33:49.031Z,94990.19
2017-09-18T00:36:19.591Z,94990.35
2017-09-18T00:38:50.834Z,94985.33
2017-09-18T00:41:22.107Z,94977.42
2017-09-18T00:43:52.609Z,94978.33
2017-09-18T00:46:23.817Z,94986.40
2017-09-18T00:48:54.701Z,94984.58
2017-09-18T00:51:28.570Z,94979.89
2017-09-18T00:54:03.566Z,94981.66
2017-09-18T00:56:34.241Z,94987.76
2017-09-18T00:59:05.470Z,94986.47
2017-09-18T01:01:37.761Z,94984.30
2017-09-18T01:04:08.666Z,94979.69
2017-09-18T01:06:39.377Z,94980.47
2017-09-18T01:09:12.317Z,94979.73
2017-09-18T01:11:46.987Z,94979.04
2017-09-18T01:14:18.351Z,94990.81
2017-09-18T01:16:49.351Z,94979.27
2017-09-18T01:19:20.212Z,94981.38
2017-09-18T01:21:51.292Z,94982.88
2017-09-18T01:24:22.866Z,94982.20
2017-09-18T01:26:53.904Z,94986.16
2017-09-18T01:29:24.337Z,94988.75
2017-09-18T01:31:55.660Z,94988.75
2017-09-18T01:34:27.800Z,94990.29
2017-09-18T01:36:58.391Z,94986.85
2017-09-18T01:39:32.895Z,94996.14
2017-09-18T01:42:45.645Z,94989.98
2017-09-18T01:45:17.787Z,94992.72
2017-09-18T01:47:49.535Z,94995.77
2017-09-18T01:50:20.730Z,94992.00
2017-09-18T01:52:52.509Z,94991.71
2017-09-18T01:55:27.666Z,94993.25
2017-09-18T01:58:07.013Z,94991.08
2017-09-18T02:00:46.931Z,94991.77
2017-09-18T02:03:20.173Z,94985.06
2017-09-18T02:05:51.703Z,94980.17
2017-09-18T02:08:23.064Z,94986.06
2017-09-18T02:10:55.785Z,94985.95
2017-09-18T02:13:27.903Z,94977.61
2017-09-18T02:15:59.198Z,94981.18
2017-09-18T02:18:30.689Z,94982.61
2017-09-18T02:21:06.689Z,94981.13
2017-09-18T02:23:51.253Z,94979.34
2017-09-18T02:26:22.518Z,94976.27
2017-09-18T02:28:54.135Z,94984.95
2017-09-18T02:31:24.977Z,94978.56
2017-09-18T02:33:55.953Z,94981.09
2017-09-18T02:36:28.092Z,94980.89
2017-09-18T02:38:59.898Z,94985.91
2017-09-18T02:41:30.968Z,94979.73
2017-09-18T02:44:03.613Z,94977.50
2017-09-18T02:46:35.207Z,94979.58
2017-09-18T02:49:06.618Z,94980.66
2017-09-18T02:51:38.243Z,94991.06
2017-09-18T02:54:10.392Z,94983.67
2017-09-18T02:56:41.801Z,94981.13
2017-09-18T02:59:13.303Z,94977.25
2017-09-18T03:01:45.770Z,94975.01
2017-09-18T03:04:17.956Z,94978.50
2017-09-18T03:06:49.733Z,94980.38
2017-09-18T03:09:21.638Z,94979.73
2017-09-18T03:11:53.845Z,94973.65
2017-09-18T03:14:27.068Z,94971.50
2017-09-18T03:16:58.930Z,94976.80
2017-09-18T03:19:30.588Z,94978.77
2017-09-18T03:22:02.956Z,94971.98
2017-09-18T03:24:34.981Z,94975.70
2017-09-18T03:27:07.189Z,94978.01
2017-09-18T03:29:38.985Z,94971.95
2017-09-18T03:32:11.673Z,94968.89
2017-09-18T03:34:43.415Z,94974.30
2017-09-18T03:37:15.505Z,94972.02
2017-09-18T03:39:46.700Z,94973.55
2017-09-18T03:42:21.055Z,94977.58
2017-09-18T03:44:52.899Z,94976.32
2017-09-18T03:47:25.731Z,94980.70
2017-09-18T03:49:58.211Z,94981.44
2017-09-18T03:52:32.336Z,94983.73
2017-09-18T03:55:04.453Z,94986.79
2017-09-18T03:57:37.932Z,94979.30
2017-09-18T04:00:13.861Z,94978.42
2017-09-18T04:02:48.794Z,94983.25
2017-09-18T04:05:25.381Z,94987.48
2017-09-18T04:07:56.526Z,94992.58
2017-09-18T04:10:32.839Z,94982.73
2017-09-18T04:13:06.601Z,94995.34
2017-09-18T04:15:38.648Z,94990.50
2017-09-18T04:18:18.458Z,94991.98
2017-09-18T04:20:50.833Z,94990.81
2017-09-18T04:23:24.415Z,94992.39
2017-09-18T04:25:58.424Z,94986.79
2017-09-18T04:28:30.488Z,94985.73
2017-09-18T04:31:04.692Z,94993.13
2017-09-18T04:33:37.678Z,94993.84
2017-09-18T04:36:12.035Z,94990.08
2017-09-18T04:38:44.537Z,94995.52
2017-09-18T04:41:18.557Z,94998.88
2017-09-18T04:43:50.854Z,95001.20
2017-09-18T04:46:22.352Z,95000.98
2017-09-18T04:48:56.015Z,95006.57
2017-09-18T04:51:27.798Z,95003.22
2017-09-18T04:54:00.022Z,95006.94
2017-09-18T04:56:32.408Z,95006.43
2017-09-18T04:59:04.937Z,95010.72
2017-09-18T05:01:37.483Z,95007.24
2017-09-18T05:04:09.074Z,95017.02
2017-09-18T05:06:40.624Z,95016.13
2017-09-18T05:09:12.552Z,95011.55
2017-09-18T05:11:45.054Z,95016.03
2017-09-18T05:14:18.250Z,95013.34
2017-09-18T05:16:49.499Z,95010.17
2017-09-18T05:19:20.561Z,95020.88
2017-09-18T05:21:51.425Z,95012.08
2017-09-18T05:24:46.998Z,95017.42
2017-09-18T05:27:18.162Z,95011.70
2017-09-18T05:29:48.723Z,95018.30
2017-09-18T05:32:21.771Z,95018.92
2017-09-18T05:34:52.631Z,95022.62
2017-09-18T05:37:24.274Z,95019.30
2017-09-18T05:40:05.826Z,95019.21
2017-09-18T05:42:40.140Z,95022.16
2017-09-18T05:45:20.291Z,95023.42
2017-09-18T05:48:00.206Z,95029.41
2017-09-18T05:50:36.828Z,95027.84
2017-09-18T05:53:08.552Z,95036.89
2017-09-18T05:55:40.028Z,95031.05
2017-09-18T05:58:11.186Z,95029.08
2017-09-18T06:00:42.276Z,95024.73
2017-09-18T06:03:14.463Z,95029.27
2017-09-18T06:05:45.230Z,95026.81
2017-09-18T06:08:30.694Z,95027.73
2017-09-18T06:14:10.180Z,95028.37
2017-09-18T06:16:43.153Z,95024.92
2017-09-18T06:19:14.877Z,95023.42
2017-09-18T06:21:46.620Z,95026.97
2017-09-18T06:24:18.064Z,95027.69
2017-09-18T06:26:49.583Z,95028.86
2017-09-18T06:29:38.781Z,95032.58
2017-09-18T06:32:25.379Z,95035.11
2017-09-18T06:35:01.465Z,95040.31
2017-09-18T06:37:42.722Z,95048.83
2017-09-18T06:40:27.018Z,95045.20
2017-09-18T06:43:30.184Z,95048.16
2017-09-18T06:46:03.365Z,95049.05
2017-09-18T06:48:34.891Z,95045.79
2017-09-18T06:51:05.906Z,95050.97
2017-09-18T06:53:37.049Z,95050.05
2017-09-18T06:56:09.343Z,95052.61
2017-09-18T06:58:41.114Z,95060.37
2017-09-18T07:01:16.901Z,95065.20
2017-09-18T07:03:51.150Z,95055.52
2017-09-18T07:06:25.092Z,95056.42
2017-09-18T07:08:57.183Z,95056.03
2017-09-18T07:11:30.772Z,95058.25
2017-09-18T07:14:03.020Z,95062.97
2017-09-18T07:16:35.309Z,95061.78
2017-09-18T07:19:07.549Z,95056.88
2017-09-18T07:21:39.801Z,95070.64
2017-09-18T07:24:12.397Z,95070.53
2017-09-18T07:26:43.897Z,95070.80
2017-09-18T07:29:15.264Z,95074.11
2017-09-18T07:31:46.407Z,95072.48
2017-09-18T07:34:18.293Z,95083.73
2017-09-18T07:36:50.357Z,95080.13
2017-09-18T07:39:22.108Z,95078.55
2017-09-18T07:41:54.212Z,95085.40
2017-09-18T07:44:25.625Z,95088.18
2017-09-18T07:46:58.427Z,95087.73
2017-09-18T07:49:28.996Z,95090.78
2017-09-18T07:52:02.073Z,95084.93
2017-09-18T07:54:33.384Z,95093.70
2017-09-18T07:57:04.805Z,95096.84
2017-09-18T07:59:38.195Z,95096.47
2017-09-18T08:02:12.454Z,95101.28
2017-09-18T08:04:46.775Z,95098.20
2017-09-18T08:07:29.202Z,95105.27
2017-09-18T08:10:02.736Z,95103.98
2017-09-18T08:12:38.105Z,95108.17
2017-09-18T08:15:10.215Z,95107.86
2017-09-18T08:17:42.575Z,95111.38
2017-09-18T08:20:14.741Z,95108.64
2017-09-18T08:22:51.480Z,95109.92
2017-09-18T08:25:25.502Z,95110.59
2017-09-18T08:27:58.648Z,95114.64
2017-09-18T08:30:31.849Z,95108.20
2017-09-18T08:33:10.017Z,95113.16
2017-09-18T08:35:42.446Z,95112.98
2017-09-18T08:38:16.299Z,95113.45
2017-09-18T08:40:51.891Z,95111.88
2017-09-18T08:43:27.096Z,95116.48
2017-09-18T08:46:00.395Z,95118.92
2017-09-18T08:48:44.251Z,95117.87
2017-09-18T08:51:18.687Z,95117.23
2017-09-18T08:56:31.565Z,95116.27
2017-09-18T08:59:05.317Z,95114.97
2017-09-18T09:01:44.493Z,95111.91
2017-09-18T09:04:16.441Z,95114.52
2017-09-18T09:06:48.736Z,95109.63
2017-09-18T09:09:31.504Z,95111.73
2017-09-18T09:12:03.306Z,95108.77
2017-09-18T09:14:34.982Z,95105.79
2017-09-18T09:17:16.186Z,95109.90
2017-09-18T09:19:50.262Z,95112.76
2017-09-18T09:22:22.108Z,95119.83
2017-09-18T09:24:53.698Z,95117.88
2017-09-18T09:27:28.009Z,95111.53
2017-09-18T09:30:01.024Z,95115.53
2017-09-18T09:32:46.771Z,95116.85
2017-09-18T09:35:30.608Z,95112.58
2017-09-18T09:41:01.777Z,95118.92
2017-09-18T09:43:47.109Z,95103.83
2017-09-18T09:46:22.706Z,95107.77
2017-09-18T09:49:25.789Z,95109.34
2017-09-18T09:52:00.964Z,95113.19
2017-09-18T09:54:32.731Z,95112.33
2017-09-18T09:57:04.609Z,95109.59
2017-09-18T09:59:38.920Z,95112.67
2017-09-18T10:02:11.292Z,95105.72
2017-09-18T10:07:44.985Z,95117.38
2017-09-18T10:10:27.245Z,95113.52
2017-09-18T10:13:09.213Z,95125.98
2017-09-18T10:18:23.173Z,95120.20
2017-09-18T10:20:59.951Z,95119.90
2017-09-18T10:23:41.981Z,95123.50
2017-09-18T10:26:13.255Z,95120.46
2017-09-18T10:28:53.603Z,95123.97
2017-09-18T10:31:29.267Z,95116.53
2017-09-18T10:34:16.631Z,95118.66
2017-09-18T10:36:56.422Z,95126.88
2017-09-18T10:39:44.324Z,95129.56
2017-09-18T10:42:36.285Z,95124.37
2017-09-18T10:48:22.226Z,95128.72
2017-09-18T10:51:01.220Z,95130.73
2017-09-18T10:53:44.187Z,95132.70
2017-09-18T10:56:31.810Z,95129.01
2017-09-18T10:59:49.076Z,95129.44
2017-09-18T11:05:35.620Z,95131.72
2017-09-18T11:08:20.393Z,95136.67
2017-09-18T11:11:11.066Z,95138.15
2017-09-18T11:16:54.619Z,95130.66
2017-09-18T11:32:51.192Z,95125.58
2017-09-18T11:35:34.752Z,95122.70
2017-09-18T11:38:13.396Z,95121.84
2017-09-18T11:45:01.383Z,95113.34
2017-09-18T11:54:15.087Z,95117.62
2017-09-18T11:57:07.159Z,95121.38
2017-09-18T11:59:59.069Z,95119.61
2017-09-18T12:02:40.740Z,95117.52
2017-09-18T12:08:18.479Z,95113.14
2017-09-18T12:14:08.614Z,95109.03
2017-09-18T12:20:07.048Z,95117.30
2017-09-18T12:26:40.158Z,95103.55
2017-09-18T12:29:41.290Z,95107.11
2017-09-18T12:32:18.638Z,95106.77
2017-09-18T12:35:23.809Z,95109.73
2017-09-18T12:38:22.628Z,95102.48
2017-09-18T12:41:30.508Z,95102.17
2017-09-18T12:44:15.934Z,95102.08
2017-09-18T12:47:08.516Z,95106.57
2017-09-18T12:49:44.735Z,95104.98
2017-09-18T12:52:25.103Z,95104.51
2017-09-18T12:58:07.077Z,95101.77
2017-09-18T13:00:47.302Z,95095.66
2017-09-18T13:03:22.829Z,95100.08
2017-09-18T13:09:05.733Z,95103.95
2017-09-18T13:15:47.649Z,95105.95
2017-09-18T13:21:47.187Z,95111.67
2017-09-18T13:27:48.088Z,95105.88
2017-09-18T13:30:53.330Z,95105.36
2017-09-18T13:33:36.831Z,95114.63
2017-09-18T13:39:19.327Z,95113.22
2017-09-18T13:42:05.439Z,95106.64
2017-09-18T13:47:53.773Z,95107.89
2017-09-18T13:50:42.268Z,95112.44
2017-09-18T13:53:46.538Z,95112.88
2017-09-18T13:56:41.682Z,95109.22
2017-09-18T13:59:27.757Z,95106.77
2017-09-18T14:02:17.042Z,95108.67
2017-09-18T14:08:18.535Z,95100.98
2017-09-18T14:11:16.393Z,95103.13
2017-09-18T14:16:50.621Z,95101.03
2017-09-18T14:23:24.151Z,95099.72
2017-09-18T14:31:22.555Z,95102.27
2017-09-18T14:37:33.851Z,95094.05
2017-09-18T14:43:52.793Z,95099.99
2017-09-18T14:46:50.165Z,95102.84
2017-09-18T14:49:33.171Z,95094.22
2017-09-18T14:52:13.720Z,95096.47
2017-09-18T14:54:52.045Z,95096.25
2017-09-18T15:00:27.417Z,95097.81
2017-09-18T15:07:29.258Z,95100.39
2017-09-18T15:10:19.073Z,95102.50
2017-09-18T15:13:12.655Z,95108.09
2017-09-18T15:15:57.667Z,95105.11
2017-09-18T15:18:51.177Z,95100.05
2017-09-18T15:24:40.257Z,95102.46
2017-09-18T15:27:15.472Z,95111.69
2017-09-18T15:29:57.621Z,95117.77
2017-09-18T15:38:22.229Z,95122.30
2017-09-18T15:41:26.719Z,95113.27
2017-09-18T15:44:08.117Z,95116.75
2017-09-18T15:49:41.684Z,95113.98
2017-09-18T15:55:12.878Z,95122.96
2017-09-18T15:57:46.241Z,95130.03
2017-09-18T16:00:39.206Z,95127.72
2017-09-18T16:03:27.605Z,95133.46
2017-09-18T16:06:04.165Z,95131.56
2017-09-18T16:08:48.522Z,95129.39
2017-09-18T16:11:23.390Z,95136.94
2017-09-18T16:14:05.473Z,95134.73
2017-09-18T16:16:52.989Z,95132.05
2017-09-18T16:19:29.509Z,95129.23
2017-09-18T16:24:57.184Z,95131.05
2017-09-18T16:30:31.135Z,95134.41
2017-09-18T16:42:16.375Z,95139.70
2017-09-18T16:50:52.830Z,95137.13
2017-09-18T16:59:32.216Z,95139.38
2017-09-18T17:02:06.234Z,95142.62
2017-09-18T17:04:40.300Z,95146.20
2017-09-18T17:07:22.340Z,95146.88
2017-09-18T17:10:20.938Z,95145.66
2017-09-18T17:13:01.498Z,95149.36
2017-09-18T17:15:44.189Z,95155.50
2017-09-18T17:18:18.184Z,95148.52
2017-09-18T17:23:39.160Z,95152.18
2017-09-18T17:26:13.758Z,95164.16
2017-09-18T17:28:48.837Z,95168.52
2017-09-18T17:31:22.194Z,95156.85
2017-09-18T17:34:02.934Z,95163.14
2017-09-18T17:36:44.598Z,95157.32
2017-09-18T17:39:19.542Z,95162.14
2017-09-18T17:42:02.881Z,95159.67
2017-09-18T17:44:49.234Z,95162.33
2017-09-18T17:50:44.434Z,95171.63
2017-09-18T17:57:01.177Z,95176.42
2017-09-18T17:59:40.242Z,95174.90
2017-09-18T18:23:18.128Z,95183.41
2017-09-18T18:25:59.475Z,95187.28
2017-09-18T18:28:49.067Z,95183.21
2017-09-18T18:41:18.387Z,95191.42
2017-09-18T18:43:52.385Z,95190.14
2017-09-18T18:46:53.940Z,95192.44
2017-09-18T18:49:36.860Z,95189.33
2017-09-18T18:56:05.133Z,95199.00
2017-09-18T18:58:41.274Z,95213.17
2017-09-18T19:01:13.608Z,95209.14
2017-09-18T19:03:45.085Z,95221.37
2017-09-18T19:06:19.284Z,95233.41
2017-09-18T19:08:54.395Z,95226.62
2017-09-18T19:11:28.873Z,95228.49
2017-09-18T19:14:03.039Z,95231.02
2017-09-18T19:16:39.425Z,95229.13
2017-09-18T19:19:12.475Z,95231.84
2017-09-18T19:21:45.637Z,95226.38
2017-09-18T19:24:17.715Z,95226.48
2017-09-18T19:26:56.312Z,95220.20
2017-09-18T19:29:27.853Z,95223.89
2017-09-18T19:32:00.769Z,95217.27
2017-09-18T19:34:38.185Z,95215.50
2017-09-18T19:37:12.767Z,95212.03
2017-09-18T19:39:45.379Z,95219.73
2017-09-18T19:42:19.989Z,95215.56
2017-09-18T19:44:53.179Z,95225.09
2017-09-18T19:47:24.783Z,95223.52
2017-09-18T19:49:56.169Z,95227.38
2017-09-18T19:52:28.584Z,95221.30
2017-09-18T19:55:00.609Z,95222.91
2017-09-18T19:57:32.436Z,95222.95
2017-09-18T20:00:05.216Z,95216.48
2017-09-18T20:02:39.517Z,95216.19
2017-09-18T20:05:12.962Z,95209.30
2017-09-18T20:07:44.896Z,95215.65
2017-09-18T20:10:16.141Z,95212.30
2017-09-18T20:12:49.003Z,95212.94
2017-09-18T20:15:21.052Z,95214.17
2017-09-18T20:17:54.942Z,95218.84
2017-09-18T20:20:28.500Z,95217.56
2017-09-18T20:23:01.804Z,95213.92
2017-09-18T20:25:35.464Z,95208.97
2017-09-18T20:28:13.322Z,95210.39
2017-09-18T20:30:46.627Z,95215.31
2017-09-18T20:33:19.631Z,95218.97
2017-09-18T20:35:51.858Z,95216.59
2017-09-18T20:38:24.488Z,95223.44
2017-09-18T20:40:58.343Z,95217.33
2017-09-18T20:43:32.097Z,95224.09
2017-09-18T20:46:03.694Z,95217.66
2017-09-18T20:48:36.680Z,95222.32
2017-09-18T20:51:08.192Z,95226.44
2017-09-18T20:53:39.723Z,95226.10
2017-09-18T20:56:13.032Z,95224.16
2017-09-18T20:58:45.286Z,95229.97
2017-09-18T21:01:18.296Z,95227.82
2017-09-18T21:03:50.271Z,95227.25
2017-09-18T21:06:22.467Z,95224.48
2017-09-18T21:08:55.316Z,95225.03
2017-09-18T21:11:27.824Z,95223.02
2017-09-18T21:13:59.254Z,95224.41
2017-09-18T21:16:31.548Z,95226.02
2017-09-18T21:19:03.275Z,95224.47
2017-09-18T21:21:35.776Z,95225.46
2017-09-18T21:24:07.531Z,95218.84
2017-09-18T21:26:39.463Z,95221.76
2017-09-18T21:29:11.076Z,95219.38
2017-09-18T21:31:43.459Z,95217.69
2017-09-18T21:34:17.462Z,95216.14
2017-09-18T21:36:52.319Z,95215.04
2017-09-18T21:39:23.930Z,95214.75
2017-09-18T21:41:57.219Z,95215.63
2017-09-18T21:44:28.774Z,95217.17
2017-09-18T21:47:01.077Z,95218.61
2017-09-18T21:49:36.080Z,95215.63
2017-09-18T21:52:08.148Z,95212.50
2017-09-18T21:54:41.214Z,95211.72
2017-09-18T21:57:13.322Z,95214.14
2017-09-18T21:59:45.539Z,95213.97
2017-09-18T22:02:17.912Z,95213.20
2017-09-18T22:04:49.643Z,95214.52
2017-09-18T22:07:22.916Z,95216.59
2017-09-18T22:09:56.848Z,95213.16
2017-09-18T22:12:30.052Z,95204.72
2017-09-18T22:15:02.519Z,95207.84
2017-09-18T22:17:35.441Z,95210.91
2017-09-18T22:20:09.286Z,95209.95
2017-09-18T22:22:41.778Z,95208.38
2017-09-18T22:25:14.082Z,95208.40
2017-09-18T22:27:45.453Z,95205.52
2017-09-18T22:30:17.651Z,95207.44
2017-09-18T22:32:50.506Z,95212.47
2017-09-18T22:35:22.413Z,95210.15
2017-09-18T22:37:54.886Z,95203.70
2017-09-18T22:40:26.715Z,95208.88
2017-09-18T22:45:25.849Z,95201.22
2017-09-18T22:47:57.510Z,95208.15
2017-09-18T22:50:29.077Z,95203.12
2017-09-18T22:53:06.456Z,95195.72
2017-09-18T22:55:39.809Z,95201.14
2017-09-18T22:58:11.602Z,95202.38
2017-09-18T23:00:43.137Z,95196.78
2017-09-18T23:03:18.819Z,95198.73
2017-09-18T23:05:51.443Z,95198.48
2017-09-18T23:08:24.762Z,95199.84
2017-09-18T23:10:59.644Z,95200.09
2017-09-18T23:13:33.622Z,95198.73
2017-09-18T23:16:05.736Z,95196.64
2017-09-18T23:18:37.109Z,95196.02
2017-09-18T23:21:09.011Z,95198.84
2017-09-18T23:23:40.238Z,95200.59
2017-09-18T23:26:12.348Z,95190.65
2017-09-18T23:28:45.537Z,95196.17
2017-09-18T23:31:19.956Z,95190.91
2017-09-18T23:33:51.959Z,95200.66
2017-09-18T23:36:23.228Z,95193.00
2017-09-18T23:38:55.530Z,95195.55
2017-09-18T23:41:28.255Z,95198.27
2017-09-18T23:44:00.295Z,95201.39
2017-09-18T23:46:33.929Z,95203.15
2017-09-18T23:49:07.396Z,95208.04
2017-09-18T23:51:39.341Z,95197.25
2017-09-18T23:54:12.113Z,95201.85
2017-09-18T23:56:53.605Z,95197.38
2017-09-18T23:59:30.469Z,95196.37
